Time;durP1;ratioP1;P1;durP2;ratioP2;P2;SDS_P1;SDS_P2;PMS_P1;PMS_P2;Temp;Humidity;BMP_temperature;BMP_pressure;BME280_temperature;BME280_humidity;BME280_pressure;Samples;Min_cycle;Max_cycle;Signal;HPM_P1;HPM_P2
2023/06/01 00:01:12;;;;;;;83.97;69.17;;;20.20;36.40;;;;;;4992214;28;20542;-57
2023/06/01 00:03:39;;;;;;;33.25;29.63;;;20.20;36.50;;;;;;4992425;28;20186;-56
2023/06/01 00:06:06;;;;;;;14.75;11.35;;;20.20;36.50;;;;;;4992256;28;20225;-55
2023/06/01 00:08:32;;;;;;;16.25;8.75;;;20.10;36.40;;;;;;4992438;28;20258;-56
2023/06/01 00:10:59;;;;;;;8.60;6.40;;;20.20;36.50;;;;;;4977251;28;20299;-54
2023/06/01 00:13:24;;;;;;;9.55;5.50;;;20.10;36.90;;;;;;4996983;28;20900;-58
2023/06/01 00:15:51;;;;;;;7.93;6.20;;;20.10;36.70;;;;;;4996412;28;20197;-56
2023/06/01 00:18:17;;;;;;;6.38;5.70;;;20.00;36.70;;;;;;4997737;28;20273;-56
2023/06/01 00:20:44;;;;;;;5.20;4.10;;;20.00;37.00;;;;;;4997401;28;20211;-59
2023/06/01 00:23:10;;;;;;;4.80;4.32;;;19.90;37.30;;;;;;4997421;28;20593;-58
2023/06/01 00:25:36;;;;;;;5.00;4.50;;;19.90;37.20;;;;;;4997257;28;20183;-56
2023/06/01 00:28:02;;;;;;;4.70;4.00;;;19.90;37.20;;;;;;4997193;28;20171;-57
2023/06/01 00:30:28;;;;;;;6.68;4.53;;;19.80;37.30;;;;;;4996548;28;20425;-57
2023/06/01 00:32:54;;;;;;;5.10;3.97;;;19.80;37.20;;;;;;4996806;28;20179;-55
2023/06/01 00:35:20;;;;;;;5.97;4.23;;;19.90;37.50;;;;;;4996803;28;20203;-54
2023/06/01 00:37:45;;;;;;;5.87;4.37;;;19.90;37.50;;;;;;4996532;28;20200;-57
2023/06/01 00:40:11;;;;;;;6.83;3.87;;;19.80;37.30;;;;;;4996467;28;20195;-57
2023/06/01 00:42:37;;;;;;;6.20;4.70;;;19.70;37.30;;;;;;4996797;28;20183;-55
2023/06/01 00:45:04;;;;;;;5.30;4.13;;;19.70;37.20;;;;;;4996217;28;20264;-58
2023/06/01 00:47:36;;;;;;;4.95;4.25;;;19.70;37.20;;;;;;4996171;28;20673;-56
2023/06/01 00:50:02;;;;;;;8.05;4.80;;;19.50;37.50;;;;;;4996441;28;20171;-56
2023/06/01 00:52:28;;;;;;;7.97;5.00;;;19.50;37.60;;;;;;4996609;28;20199;-57
2023/06/01 00:54:54;;;;;;;7.45;4.57;;;19.40;37.70;;;;;;4996789;28;20179;-59
2023/06/01 00:57:21;;;;;;;6.90;4.25;;;19.40;37.80;;;;;;4997178;28;20225;-55
2023/06/01 00:59:47;;;;;;;5.70;4.00;;;19.30;37.50;;;;;;4996403;28;20265;-58
2023/06/01 01:02:15;;;;;;;4.23;3.40;;;19.30;37.70;;;;;;4996339;28;20681;-55
2023/06/01 01:04:41;;;;;;;6.53;4.47;;;19.20;37.60;;;;;;4996543;28;20427;-57
2023/06/01 01:07:21;;;;;;;5.22;4.00;;;19.20;38.10;;;;;;4996525;28;20569;-58
2023/06/01 01:09:55;;;;;;;5.28;4.15;;;19.20;38.20;;;;;;4977880;28;20657;-54
2023/06/01 01:12:24;;;;;;;4.53;4.10;;;19.20;38.10;;;;;;4995418;28;20265;-54
2023/06/01 01:14:59;;;;;;;6.03;4.18;;;19.10;38.20;;;;;;4995536;28;20182;-57
2023/06/01 01:17:46;;;;;;;4.72;3.85;;;19.10;38.10;;;;;;4995215;28;20203;-54
2023/06/01 01:20:47;;;;;;;7.93;4.05;;;19.20;38.40;;;;;;4994953;28;20199;-54
2023/06/01 01:23:41;;;;;;;5.50;3.70;;;19.20;38.40;;;;;;4943422;28;20719;-54
2023/06/01 01:26:13;;;;;;;5.85;4.13;;;19.10;38.30;;;;;;4995016;28;20669;-56
2023/06/01 01:28:52;;;;;;;4.82;4.32;;;19.10;38.20;;;;;;4995113;28;20171;-56
2023/06/01 01:31:23;;;;;;;9.00;5.55;;;19.10;38.20;;;;;;4995043;28;20182;-55
2023/06/01 01:33:52;;;;;;;4.25;3.85;;;19.00;37.80;;;;;;4977712;28;20262;-56
2023/06/01 01:36:19;;;;;;;6.25;4.43;;;19.00;38.00;;;;;;4994943;28;20554;-56
2023/06/01 01:38:45;;;;;;;6.75;3.92;;;19.00;38.10;;;;;;4995608;28;20179;-56
2023/06/01 01:41:10;;;;;;;6.33;4.37;;;19.00;38.10;;;;;;4994935;28;20681;-55
2023/06/01 01:43:38;;;;;;;8.63;4.40;;;19.00;38.50;;;;;;4995040;28;20410;-56
2023/06/01 01:46:25;;;;;;;6.70;5.03;;;19.00;38.40;;;;;;4994697;28;20422;-54
2023/06/01 01:49:14;;;;;;;7.43;4.57;;;18.90;38.20;;;;;;4995046;28;20166;-56
2023/06/01 01:51:49;;;;;;;5.07;4.25;;;18.90;38.40;;;;;;4994598;28;20179;-54
2023/06/01 01:54:17;;;;;;;4.80;4.22;;;18.90;38.40;;;;;;4994992;28;20187;-54
2023/06/01 01:56:44;;;;;;;6.57;4.65;;;18.90;38.40;;;;;;4994416;28;20191;-54
2023/06/01 01:59:10;;;;;;;5.47;4.00;;;18.90;38.40;;;;;;4994352;28;20190;-55
2023/06/01 02:01:37;;;;;;;4.87;4.37;;;18.80;38.30;;;;;;4994517;28;20175;-53
2023/06/01 02:04:07;;;;;;;4.45;3.95;;;18.80;38.40;;;;;;4994337;28;20407;-53
2023/06/01 02:06:33;;;;;;;5.85;4.40;;;18.80;38.50;;;;;;4994239;28;20219;-57
2023/06/01 02:08:59;;;;;;;5.53;3.83;;;18.80;39.10;;;;;;4994379;28;20218;-56
2023/06/01 02:11:25;;;;;;;5.73;4.30;;;18.70;38.70;;;;;;4994248;28;20546;-53
2023/06/01 02:13:50;;;;;;;5.80;4.80;;;18.70;38.80;;;;;;4994138;28;20784;-58
2023/06/01 02:16:16;;;;;;;6.77;4.90;;;18.60;38.80;;;;;;4994105;28;20199;-55
2023/06/01 02:18:45;;;;;;;5.57;4.83;;;18.60;38.90;;;;;;4994024;28;20179;-52
2023/06/01 02:21:14;;;;;;;8.43;4.07;;;18.50;38.80;;;;;;4994058;28;20205;-57
2023/06/01 02:23:41;;;;;;;6.15;5.00;;;18.50;38.80;;;;;;4976714;28;20179;-56
2023/06/01 02:26:09;;;;;;;6.00;4.55;;;18.50;38.80;;;;;;4993995;28;20624;-54
2023/06/01 02:28:38;;;;;;;5.28;4.78;;;18.50;39.00;;;;;;4993798;28;20677;-56
2023/06/01 02:31:04;;;;;;;6.50;4.63;;;18.60;38.80;;;;;;4993926;28;20282;-53
2023/06/01 02:33:30;;;;;;;15.07;4.93;;;18.60;38.70;;;;;;4993158;28;20250;-56
2023/06/01 02:35:55;;;;;;;4.40;4.00;;;18.50;38.50;;;;;;4993927;28;20294;-54
2023/06/01 02:38:21;;;;;;;4.83;4.33;;;18.50;38.80;;;;;;4993707;28;20757;-56
2023/06/01 02:40:47;;;;;;;6.20;4.13;;;18.50;38.80;;;;;;4993496;28;20207;-54
2023/06/01 02:43:13;;;;;;;7.40;5.97;;;18.50;38.90;;;;;;4993754;28;20194;-54
2023/06/01 02:45:38;;;;;;;4.90;4.47;;;18.50;39.00;;;;;;4993805;28;20521;-55
2023/06/01 02:48:04;;;;;;;6.17;4.17;;;18.50;38.70;;;;;;4993524;28;20189;-52
2023/06/01 02:50:30;;;;;;;6.60;4.78;;;18.50;39.00;;;;;;4993327;28;20171;-56
2023/06/01 02:52:56;;;;;;;6.87;5.03;;;18.40;38.80;;;;;;4993465;28;20179;-56
2023/06/01 02:55:22;;;;;;;6.33;4.30;;;18.40;38.80;;;;;;4993479;28;20175;-53
2023/06/01 02:57:48;;;;;;;10.23;5.40;;;18.40;39.10;;;;;;4993437;28;20593;-52
2023/06/01 03:00:17;;;;;;;10.83;4.50;;;18.40;39.40;;;;;;4975890;28;20450;-56
2023/06/01 03:02:44;;;;;;;6.03;5.38;;;18.40;39.10;;;;;;4993142;28;20418;-56
2023/06/01 03:05:15;;;;;;;6.95;4.45;;;18.40;39.30;;;;;;4992758;28;20842;-53
2023/06/01 03:07:41;;;;;;;9.75;4.53;;;18.30;39.30;;;;;;4992969;28;20550;-54
2023/06/01 03:10:08;;;;;;;7.05;5.35;;;18.40;39.10;;;;;;4992953;28;20242;-56
2023/06/01 03:12:34;;;;;;;5.70;5.18;;;18.30;39.40;;;;;;4993126;28;20167;-55
2023/06/01 03:15:00;;;;;;;6.22;3.95;;;18.30;39.50;;;;;;4993299;28;20226;-53
2023/06/01 03:17:26;;;;;;;4.87;4.10;;;18.30;39.30;;;;;;4993024;28;20697;-53
2023/06/01 03:19:52;;;;;;;6.23;4.47;;;18.20;39.20;;;;;;4992687;28;20205;-53
2023/06/01 03:22:17;;;;;;;5.60;3.93;;;18.10;39.60;;;;;;4992878;28;20176;-56
2023/06/01 03:24:43;;;;;;;5.00;4.00;;;18.10;39.50;;;;;;4992853;28;20186;-58
2023/06/01 03:27:11;;;;;;;5.50;4.40;;;18.10;39.50;;;;;;4992847;28;20422;-55
2023/06/01 03:29:37;;;;;;;6.97;4.75;;;18.10;39.50;;;;;;4975080;28;20262;-54
2023/06/01 03:32:03;;;;;;;13.00;5.43;;;18.00;39.60;;;;;;4992833;28;20214;-55
2023/06/01 03:34:29;;;;;;;6.75;4.95;;;17.90;40.00;;;;;;4992822;28;20417;-52
2023/06/01 03:36:55;;;;;;;7.30;4.63;;;17.90;40.20;;;;;;4992632;28;20334;-52
2023/06/01 03:39:20;;;;;;;4.77;4.27;;;17.80;40.10;;;;;;4992782;28;20186;-59
2023/06/01 03:41:46;;;;;;;4.53;4.13;;;17.80;40.20;;;;;;4992845;28;20588;-54
2023/06/01 03:44:12;;;;;;;7.20;4.53;;;17.80;40.40;;;;;;4992616;28;20171;-53
2023/06/01 03:46:39;;;;;;;4.27;3.80;;;17.90;40.60;;;;;;4992463;28;20565;-57
2023/06/01 03:49:05;;;;;;;5.85;4.50;;;17.90;40.50;;;;;;4992667;28;20438;-52
2023/06/01 03:51:31;;;;;;;5.60;4.00;;;17.90;40.80;;;;;;4992710;28;20210;-56
2023/06/01 03:53:57;;;;;;;5.60;4.53;;;17.90;40.80;;;;;;4992626;28;20581;-54
2023/06/01 03:56:23;;;;;;;16.67;4.37;;;17.90;40.70;;;;;;4992565;28;20254;-51
2023/06/01 03:58:50;;;;;;;7.20;4.37;;;18.00;40.80;;;;;;4992414;28;20417;-56
2023/06/01 04:01:16;;;;;;;8.90;4.47;;;18.00;40.90;;;;;;4992614;28;20213;-53
2023/06/01 04:03:45;;;;;;;9.73;5.45;;;18.10;40.50;;;;;;4992395;28;20214;-59
2023/06/01 04:06:17;;;;;;;5.15;4.13;;;18.10;40.80;;;;;;4992266;28;20550;-57
2023/06/01 04:08:50;;;;;;;7.47;5.30;;;18.20;40.80;;;;;;4992419;28;20199;-54
2023/06/01 04:11:17;;;;;;;5.22;4.25;;;18.20;40.80;;;;;;4991862;28;20179;-58
2023/06/01 04:13:46;;;;;;;8.70;4.70;;;18.20;40.60;;;;;;4974848;28;20186;-55
2023/06/01 04:16:12;;;;;;;6.65;4.40;;;18.30;40.30;;;;;;4992178;28;20283;-53
2023/06/01 04:18:38;;;;;;;7.10;4.67;;;18.30;40.40;;;;;;4992342;28;20270;-59
2023/06/01 04:21:04;;;;;;;7.27;4.53;;;18.30;40.40;;;;;;4992009;28;20457;-53
2023/06/01 04:23:30;;;;;;;8.07;4.77;;;18.40;40.30;;;;;;4992396;28;20172;-57
2023/06/01 04:25:59;;;;;;;22.92;5.60;;;18.40;40.40;;;;;;4992108;28;20509;-55
2023/06/01 04:28:29;;;;;;;13.50;5.13;;;18.50;40.70;;;;;;4992289;28;20175;-59
2023/06/01 04:30:56;;;;;;;6.32;4.45;;;18.50;40.50;;;;;;4992097;28;20151;-58
2023/06/01 04:33:24;;;;;;;16.42;4.25;;;18.60;39.80;;;;;;4992143;28;20642;-53
2023/06/01 04:35:53;;;;;;;17.58;5.97;;;18.70;39.80;;;;;;4992129;28;20195;-54
2023/06/01 04:38:19;;;;;;;5.40;4.65;;;18.70;40.30;;;;;;4992056;28;20585;-58
2023/06/01 04:40:45;;;;;;;6.05;4.65;;;18.70;40.30;;;;;;4992164;28;20301;-54
2023/06/01 04:43:12;;;;;;;5.70;4.77;;;18.80;40.00;;;;;;4992208;28;20349;-56
2023/06/01 04:45:38;;;;;;;6.47;4.55;;;18.90;39.60;;;;;;4992072;28;20262;-55
2023/06/01 04:48:11;;;;;;;4.75;4.28;;;19.00;39.40;;;;;;4992231;28;20186;-54
2023/06/01 04:50:37;;;;;;;6.40;4.22;;;19.10;39.40;;;;;;4974520;28;20221;-54
2023/06/01 04:53:03;;;;;;;4.70;4.30;;;19.10;39.10;;;;;;4992084;28;20203;-54
2023/06/01 04:55:30;;;;;;;7.60;4.93;;;19.20;39.00;;;;;;4991956;28;20633;-56
2023/06/01 04:57:56;;;;;;;11.20;6.22;;;19.70;39.20;;;;;;4995426;28;20546;-58
2023/06/01 05:00:22;;;;;;;7.25;4.32;;;19.40;38.80;;;;;;4995198;28;20214;-53
2023/06/01 05:02:49;;;;;;;7.90;5.20;;;19.50;39.00;;;;;;4995414;28;20179;-54
2023/06/01 05:05:16;;;;;;;12.75;4.95;;;19.60;38.70;;;;;;4995315;28;20223;-54
2023/06/01 05:07:42;;;;;;;5.93;4.80;;;19.60;38.70;;;;;;4995349;28;20665;-54
2023/06/01 05:10:09;;;;;;;6.43;4.55;;;19.70;38.80;;;;;;4995431;28;20191;-55
2023/06/01 05:12:36;;;;;;;9.20;5.32;;;19.80;38.50;;;;;;4995605;28;20185;-56
2023/06/01 05:15:08;;;;;;;8.80;5.00;;;19.90;38.60;;;;;;4995548;28;20187;-54
2023/06/01 05:17:34;;;;;;;8.88;5.32;;;20.00;38.60;;;;;;4995202;28;20242;-53
2023/06/01 05:20:00;;;;;;;9.63;6.03;;;20.10;38.30;;;;;;4995118;28;20207;-57
2023/06/01 05:22:26;;;;;;;8.33;5.63;;;20.20;37.70;;;;;;4995204;28;20171;-54
2023/06/01 05:24:52;;;;;;;5.80;5.00;;;20.30;37.50;;;;;;4995352;28;20434;-55
2023/06/01 05:27:18;;;;;;;6.93;5.20;;;20.40;37.30;;;;;;4995197;28;20820;-55
2023/06/01 05:29:44;;;;;;;9.50;5.43;;;20.40;37.30;;;;;;4995197;28;20411;-53
2023/06/01 05:32:10;;;;;;;6.90;4.30;;;20.50;37.60;;;;;;4995043;28;20569;-54
2023/06/01 05:34:36;;;;;;;6.53;5.30;;;20.60;37.20;;;;;;4994774;28;20641;-56
2023/06/01 05:37:02;;;;;;;6.80;5.90;;;20.70;37.20;;;;;;4994875;28;20522;-54
2023/06/01 05:39:28;;;;;;;7.55;6.07;;;20.80;37.30;;;;;;4994590;28;21104;-53
2023/06/01 05:41:57;;;;;;;7.57;4.82;;;20.90;37.40;;;;;;4994790;28;20642;-56
2023/06/01 05:44:24;;;;;;;8.55;5.20;;;21.10;37.00;;;;;;4995008;28;20171;-54
2023/06/01 05:46:52;;;;;;;5.28;4.45;;;21.10;37.00;;;;;;4994939;28;20195;-53
2023/06/01 05:49:19;;;;;;;9.43;5.05;;;21.30;37.50;;;;;;4994640;28;20185;-56
2023/06/01 05:51:46;;;;;;;6.78;5.07;;;21.50;36.30;;;;;;4994503;28;20182;-56
2023/06/01 05:54:12;;;;;;;8.52;4.78;;;21.50;35.40;;;;;;4994941;28;20180;-54
2023/06/01 05:56:38;;;;;;;6.50;4.40;;;21.60;35.40;;;;;;4994566;28;20187;-54
2023/06/01 05:59:04;;;;;;;7.23;4.27;;;21.60;34.60;;;;;;4994349;28;20729;-57
2023/06/01 06:01:30;;;;;;;11.00;4.17;;;21.60;34.40;;;;;;4994396;28;20453;-55
2023/06/01 06:03:57;;;;;;;9.20;4.43;;;21.70;35.00;;;;;;4994253;28;20202;-54
2023/06/01 06:06:23;;;;;;;8.90;4.73;;;21.70;34.40;;;;;;4993986;28;20521;-57
2023/06/01 06:08:49;;;;;;;6.33;4.20;;;21.80;34.80;;;;;;4993093;28;20445;-54
2023/06/01 06:11:15;;;;;;;6.53;4.78;;;21.80;34.90;;;;;;4974714;28;20981;-53
2023/06/01 06:13:40;;;;;;;8.30;4.17;;;21.80;34.80;;;;;;4974689;28;20188;-56
2023/06/01 06:16:06;;;;;;;6.00;3.60;;;22.00;35.00;;;;;;4974715;28;20251;-54
2023/06/01 06:18:33;;;;;;;6.03;4.30;;;22.00;34.30;;;;;;4974553;28;20263;-56
2023/06/01 06:20:58;;;;;;;6.53;4.30;;;22.10;34.30;;;;;;4974325;28;20211;-56
2023/06/01 06:23:24;;;;;;;6.80;4.40;;;22.20;34.70;;;;;;4974663;28;20180;-54
2023/06/01 06:25:50;;;;;;;6.97;4.27;;;22.40;34.30;;;;;;4974498;28;20187;-56
2023/06/01 06:28:16;;;;;;;10.77;7.33;;;22.50;34.30;;;;;;4974553;28;20706;-56
2023/06/01 06:30:41;;;;;;;7.33;3.93;;;22.50;34.10;;;;;;4974304;28;20403;-53
2023/06/01 06:33:07;;;;;;;6.53;4.40;;;22.70;34.00;;;;;;4974294;28;20419;-57
2023/06/01 06:35:33;;;;;;;5.63;4.43;;;22.80;34.10;;;;;;4974500;28;20179;-55
2023/06/01 06:37:59;;;;;;;6.90;4.20;;;22.90;34.20;;;;;;4974567;28;20402;-55
2023/06/01 06:40:24;;;;;;;7.77;3.97;;;23.00;33.70;;;;;;4974075;28;20275;-56
2023/06/01 06:42:50;;;;;;;5.50;4.40;;;23.10;33.40;;;;;;4974206;28;20171;-54
2023/06/01 06:45:16;;;;;;;6.73;4.00;;;23.10;33.70;;;;;;4974197;28;20198;-53
2023/06/01 06:47:45;;;;;;;7.90;4.30;;;23.20;33.80;;;;;;4973932;28;20192;-56
2023/06/01 06:50:12;;;;;;;9.13;4.00;;;23.20;33.70;;;;;;4974012;28;20450;-54
2023/06/01 06:52:38;;;;;;;5.90;4.17;;;23.30;33.70;;;;;;4974192;28;20420;-55
2023/06/01 06:55:05;;;;;;;9.30;4.23;;;23.40;33.40;;;;;;4973944;28;20418;-54
2023/06/01 06:57:30;;;;;;;8.40;4.90;;;23.40;33.20;;;;;;4974002;28;20466;-54
2023/06/01 06:59:57;;;;;;;7.90;5.20;;;23.40;33.80;;;;;;4973614;28;20487;-59
2023/06/01 07:02:23;;;;;;;61.90;51.67;;;23.50;33.00;;;;;;4974072;28;20180;-57
2023/06/01 07:04:48;;;;;;;5.33;4.30;;;23.60;33.30;;;;;;4973849;28;20428;-54
2023/06/01 07:07:14;;;;;;;5.57;4.00;;;23.60;33.00;;;;;;4973938;28;20218;-54
2023/06/01 07:09:40;;;;;;;5.83;4.03;;;23.70;33.50;;;;;;4973193;28;20176;-57
2023/06/01 07:12:07;;;;;;;5.70;4.63;;;23.80;33.70;;;;;;4973838;28;20411;-57
2023/06/01 07:14:33;;;;;;;8.90;4.47;;;23.90;33.40;;;;;;4973655;28;20408;-54
2023/06/01 07:16:58;;;;;;;8.53;4.47;;;24.00;33.70;;;;;;4973538;28;20442;-55
2023/06/01 07:19:25;;;;;;;8.17;4.87;;;24.10;33.50;;;;;;4972973;28;20187;-57
2023/06/01 07:21:50;;;;;;;5.43;4.17;;;24.20;33.30;;;;;;4973676;28;20203;-53
2023/06/01 07:24:21;;;;;;;5.10;4.33;;;24.30;33.30;;;;;;4973504;28;20906;-54
2023/06/01 07:26:47;;;;;;;10.60;4.60;;;24.30;33.30;;;;;;4973567;28;20670;-59
2023/06/01 07:29:14;;;;;;;10.30;4.97;;;24.30;33.90;;;;;;4973199;28;20411;-56
2023/06/01 07:31:40;;;;;;;5.70;4.37;;;24.40;33.50;;;;;;4973510;28;20183;-55
2023/06/01 07:34:06;;;;;;;6.37;5.17;;;24.60;33.30;;;;;;4973484;28;20494;-56
2023/06/01 07:36:36;;;;;;;7.80;6.10;;;24.60;32.50;;;;;;4973318;28;20578;-55
2023/06/01 07:39:05;;;;;;;7.33;4.47;;;24.60;32.90;;;;;;4991924;28;20194;-54
2023/06/01 07:41:35;;;;;;;8.23;4.60;;;24.50;32.60;;;;;;4992796;28;20501;-57
2023/06/01 07:44:01;;;;;;;8.80;4.90;;;24.60;32.20;;;;;;4992580;28;20403;-56
2023/06/01 07:46:26;;;;;;;8.40;6.17;;;24.60;32.20;;;;;;4992615;28;20786;-55
2023/06/01 07:48:52;;;;;;;11.00;5.97;;;24.60;32.70;;;;;;4992644;28;20464;-55
2023/06/01 07:51:18;;;;;;;6.20;4.63;;;24.70;32.30;;;;;;4992541;28;20419;-56
2023/06/01 07:53:44;;;;;;;7.67;5.90;;;24.70;32.00;;;;;;4992546;28;20175;-54
2023/06/01 07:56:10;;;;;;;5.90;4.50;;;24.70;32.10;;;;;;4992412;28;20618;-55
2023/06/01 07:58:37;;;;;;;8.83;5.17;;;24.70;32.60;;;;;;4992463;28;20415;-55
2023/06/01 08:01:04;;;;;;;7.50;4.40;;;24.70;33.10;;;;;;4992340;28;20461;-58
2023/06/01 08:03:33;;;;;;;6.37;4.40;;;24.80;32.10;;;;;;4992582;28;20439;-56
2023/06/01 08:06:02;;;;;;;8.87;5.50;;;24.80;32.10;;;;;;4992367;28;20450;-54
2023/06/01 08:08:28;;;;;;;10.80;4.17;;;24.80;33.20;;;;;;4992509;28;20545;-54
2023/06/01 08:10:54;;;;;;;7.33;4.40;;;24.90;33.10;;;;;;4992169;28;20836;-58
2023/06/01 08:13:20;;;;;;;12.07;4.97;;;25.00;33.10;;;;;;4992427;28;20411;-54
2023/06/01 08:15:49;;;;;;;5.60;3.77;;;25.20;32.60;;;;;;4992421;28;20433;-56
2023/06/01 08:18:15;;;;;;;6.77;4.57;;;25.20;32.20;;;;;;4992418;28;20489;-52
2023/06/01 08:20:41;;;;;;;8.93;3.97;;;25.30;33.40;;;;;;4991990;28;20789;-57
2023/06/01 08:23:08;;;;;;;7.93;3.63;;;25.40;31.80;;;;;;4992345;28;20439;-54
2023/06/01 08:25:34;;;;;;;8.87;4.43;;;25.40;32.00;;;;;;4992121;28;20409;-54
2023/06/01 08:28:00;;;;;;;7.73;3.80;;;25.60;31.70;;;;;;4992631;28;20734;-57
2023/06/01 08:30:26;;;;;;;7.13;3.43;;;25.70;31.30;;;;;;4992150;28;20422;-57
2023/06/01 08:32:52;;;;;;;11.30;4.80;;;25.80;30.10;;;;;;4995913;28;20406;-55
2023/06/01 08:35:19;;;;;;;8.60;3.93;;;25.80;30.90;;;;;;4996102;28;20615;-53
2023/06/01 08:37:47;;;;;;;8.43;3.73;;;25.90;31.40;;;;;;4995903;28;20677;-56
2023/06/01 08:40:13;;;;;;;7.60;4.60;;;26.10;31.60;;;;;;4995618;28;20450;-54
2023/06/01 08:42:45;;;;;;;9.33;4.70;;;26.20;30.80;;;;;;4996126;28;21060;-55
2023/06/01 08:45:13;;;;;;;6.33;3.60;;;26.20;30.20;;;;;;4978343;28;20206;-55
2023/06/01 08:47:40;;;;;;;5.60;3.17;;;26.30;30.90;;;;;;4995652;28;21018;-55
2023/06/01 08:50:09;;;;;;;6.47;3.77;;;26.40;30.80;;;;;;4995603;28;20450;-53
2023/06/01 08:52:35;;;;;;;9.33;3.87;;;26.50;30.10;;;;;;4995548;28;20414;-57
2023/06/01 08:55:03;;;;;;;7.30;3.80;;;26.60;30.30;;;;;;4995919;28;20457;-55
2023/06/01 08:57:29;;;;;;;4.10;3.37;;;26.70;29.00;;;;;;4995522;28;20987;-56
2023/06/01 08:59:56;;;;;;;7.87;3.23;;;26.70;28.60;;;;;;4995227;28;20454;-54
2023/06/01 09:02:23;;;;;;;8.77;4.00;;;26.70;29.80;;;;;;4995624;28;20754;-54
2023/06/01 09:04:50;;;;;;;5.00;3.27;;;26.70;30.30;;;;;;4995640;28;20461;-56
2023/06/01 09:07:16;;;;;;;6.73;3.67;;;26.90;30.20;;;;;;4995298;28;20433;-55
2023/06/01 09:09:42;;;;;;;5.73;3.90;;;27.00;30.20;;;;;;4995489;28;20498;-57
2023/06/01 09:12:27;;;;;;;5.17;3.13;;;27.10;29.80;;;;;;4995439;28;20928;-57
2023/06/01 09:15:16;;;;;;;7.50;3.70;;;27.20;29.30;;;;;;4995389;28;20808;-53
2023/06/01 09:17:48;;;;;;;4.33;3.07;;;27.30;29.10;;;;;;4995119;28;20943;-58
2023/06/01 09:20:25;;;;;;;5.57;3.20;;;27.30;27.90;;;;;;4977489;28;20524;-54
2023/06/01 09:22:51;;;;;;;4.67;3.03;;;27.30;28.60;;;;;;4995205;28;20398;-54
2023/06/01 09:25:24;;;;;;;5.40;3.27;;;27.40;28.50;;;;;;4995152;28;21062;-57
2023/06/01 09:27:51;;;;;;;7.23;3.60;;;27.50;29.80;;;;;;4994965;28;20439;-54
2023/06/01 09:30:18;;;;;;;6.33;3.30;;;27.70;28.90;;;;;;4994757;28;20485;-54
2023/06/01 09:32:50;;;;;;;4.93;2.90;;;27.80;29.30;;;;;;4994931;28;20410;-57
2023/06/01 09:35:36;;;;;;;4.10;2.90;;;28.00;28.80;;;;;;4995235;28;20445;-57
2023/06/01 09:38:05;;;;;;;5.97;2.67;;;28.10;26.80;;;;;;4994146;28;20455;-57
2023/06/01 09:40:32;;;;;;;8.90;2.80;;;28.10;27.40;;;;;;4994615;28;20446;-57
2023/06/01 09:42:58;;;;;;;6.73;2.67;;;28.30;27.60;;;;;;4994464;28;20771;-55
2023/06/01 09:45:24;;;;;;;4.13;2.97;;;28.40;26.90;;;;;;4994821;28;20402;-54
2023/06/01 09:47:53;;;;;;;10.13;3.70;;;28.40;26.40;;;;;;4994727;28;20425;-56
2023/06/01 09:50:40;;;;;;;8.13;3.20;;;28.50;27.20;;;;;;4994320;28;20417;-54
2023/06/01 09:53:05;;;;;;;6.50;2.73;;;28.60;26.60;;;;;;4994547;28;20904;-55
2023/06/01 09:55:32;;;;;;;5.67;3.57;;;28.60;25.50;;;;;;4994532;28;20413;-54
2023/06/01 09:58:21;;;;;;;8.03;3.63;;;28.70;25.90;;;;;;4994674;28;20180;-56
2023/06/01 10:00:49;;;;;;;9.00;3.47;;;28.70;26.40;;;;;;4994454;28;20438;-53
2023/06/01 10:03:16;;;;;;;5.47;3.33;;;28.70;25.60;;;;;;4994408;28;20410;-53
2023/06/01 10:05:43;;;;;;;5.37;3.90;;;28.70;26.90;;;;;;4994197;28;20427;-57
2023/06/01 10:08:12;;;;;;;6.23;3.40;;;28.80;25.80;;;;;;4994615;28;20501;-55
2023/06/01 10:10:39;;;;;;;4.90;3.13;;;28.90;25.50;;;;;;4994022;28;20417;-55
2023/06/01 10:13:06;;;;;;;7.33;3.23;;;29.00;26.00;;;;;;4994339;28;20418;-57
2023/06/01 10:15:33;;;;;;;5.43;3.23;;;29.00;27.10;;;;;;4994362;28;20426;-54
2023/06/01 10:18:00;;;;;;;7.30;4.00;;;29.10;26.30;;;;;;4994097;28;20407;-54
2023/06/01 10:20:26;;;;;;;15.30;13.00;;;29.20;25.30;;;;;;4993993;28;20445;-57
2023/06/01 10:22:52;;;;;;;13.47;4.30;;;29.20;25.70;;;;;;4993992;28;20900;-57
2023/06/01 10:25:23;;;;;;;4.20;3.37;;;29.20;26.20;;;;;;4994294;28;20417;-54
2023/06/01 10:28:04;;;;;;;6.13;3.60;;;29.30;25.60;;;;;;4993824;28;20422;-55
2023/06/01 10:30:30;;;;;;;7.53;3.30;;;29.30;25.80;;;;;;4993587;28;20501;-53
2023/06/01 10:32:56;;;;;;;3.57;2.80;;;29.40;26.00;;;;;;4993927;28;20464;-54
2023/06/01 10:35:28;;;;;;;8.60;3.90;;;29.60;24.00;;;;;;4993910;28;20410;-57
2023/06/01 10:38:06;;;;;;;5.07;3.13;;;29.60;24.80;;;;;;4993761;28;20210;-55
2023/06/01 10:40:45;;;;;;;5.47;2.70;;;29.60;24.50;;;;;;4993415;28;20832;-57
2023/06/01 10:43:35;;;;;;;3.10;2.50;;;29.70;24.50;;;;;;4993530;28;20407;-55
2023/06/01 10:46:01;;;;;;;6.37;3.67;;;29.80;25.50;;;;;;4993844;28;20423;-54
2023/06/01 10:48:53;;;;;;;5.23;3.87;;;30.00;26.10;;;;;;4993678;28;20900;-54
2023/06/01 10:51:21;;;;;;;4.40;3.60;;;30.10;26.10;;;;;;4993309;28;20419;-55
2023/06/01 10:53:46;;;;;;;5.07;3.80;;;30.20;23.90;;;;;;4992974;28;20402;-57
2023/06/01 10:56:26;;;;;;;5.10;3.60;;;30.30;25.40;;;;;;4993444;28;20979;-54
2023/06/01 10:59:08;;;;;;;5.03;2.90;;;30.40;25.10;;;;;;4993454;28;20195;-55
2023/06/01 11:01:41;;;;;;;9.13;2.90;;;30.50;24.20;;;;;;4993173;28;20446;-54
2023/06/01 11:04:07;;;;;;;5.20;3.70;;;30.50;22.70;;;;;;4993510;28;20449;-55
2023/06/01 11:06:37;;;;;;;7.10;3.13;;;30.40;23.40;;;;;;4993077;28;20493;-55
2023/06/01 11:09:10;;;;;;;5.87;3.20;;;30.30;22.80;;;;;;4993203;28;20423;-55
2023/06/01 11:11:50;;;;;;;7.20;3.53;;;30.20;23.50;;;;;;4993056;28;20562;-57
2023/06/01 11:14:17;;;;;;;4.60;3.60;;;30.20;22.30;;;;;;4993248;28;20410;-55
2023/06/01 11:16:44;;;;;;;5.43;3.07;;;30.20;22.60;;;;;;4992974;28;20438;-57
2023/06/01 11:19:16;;;;;;;4.83;3.23;;;30.20;23.40;;;;;;4992959;28;20403;-55
2023/06/01 11:21:43;;;;;;;4.70;3.10;;;30.30;23.60;;;;;;4993069;28;20504;-55
2023/06/01 11:24:16;;;;;;;4.47;2.50;;;30.40;22.10;;;;;;4992877;28;20406;-57
2023/06/01 11:26:44;;;;;;;8.53;3.07;;;30.40;23.10;;;;;;4992720;28;20429;-55
2023/06/01 11:29:25;;;;;;;7.40;3.80;;;30.50;22.60;;;;;;4992732;28;20413;-55
2023/06/01 11:31:56;;;;;;;5.23;3.87;;;30.40;22.00;;;;;;4992980;28;20404;-58
2023/06/01 11:34:37;;;;;;;3.80;2.80;;;30.30;22.00;;;;;;4992815;28;20403;-54
2023/06/01 11:37:03;;;;;;;5.27;4.10;;;30.30;23.20;;;;;;4993004;28;20426;-57
2023/06/01 11:39:29;;;;;;;9.60;3.67;;;30.40;23.50;;;;;;4992395;28;20789;-54
2023/06/01 11:42:18;;;;;;;5.33;3.50;;;30.50;23.80;;;;;;4992598;28;20482;-54
2023/06/01 11:44:54;;;;;;;6.87;3.60;;;30.70;23.20;;;;;;4992728;28;20429;-53
2023/06/01 11:47:20;;;;;;;7.90;3.53;;;30.60;24.50;;;;;;4992552;28;20431;-56
2023/06/01 11:49:48;;;;;;;5.43;4.23;;;30.70;22.70;;;;;;4992252;28;20417;-56
2023/06/01 11:52:15;;;;;;;4.40;3.30;;;30.70;23.60;;;;;;4992642;28;20176;-54
2023/06/01 11:54:41;;;;;;;8.43;3.57;;;30.80;23.30;;;;;;4992578;28;20738;-54
2023/06/01 11:57:07;;;;;;;7.50;4.03;;;31.00;24.60;;;;;;4992488;28;20438;-58
2023/06/01 11:59:52;;;;;;;10.70;4.20;;;31.10;23.20;;;;;;4992580;28;20225;-55
2023/06/01 12:02:26;;;;;;;4.47;3.80;;;31.10;21.80;;;;;;4992377;28;20477;-55
2023/06/01 12:04:58;;;;;;;5.57;3.10;;;30.90;20.30;;;;;;4993007;28;20472;-58
2023/06/01 12:07:25;;;;;;;6.20;4.00;;;30.70;20.40;;;;;;4996616;28;20433;-55
2023/06/01 12:09:55;;;;;;;4.00;3.20;;;30.70;21.00;;;;;;4996231;28;20445;-57
2023/06/01 12:12:25;;;;;;;4.50;3.27;;;30.80;20.20;;;;;;4996438;28;20934;-54
2023/06/01 12:14:51;;;;;;;7.33;3.67;;;30.70;20.20;;;;;;4996415;28;20403;-57
2023/06/01 12:17:18;;;;;;;6.47;3.60;;;30.70;19.30;;;;;;4996327;28;20513;-54
2023/06/01 12:19:46;;;;;;;6.60;4.10;;;30.60;19.60;;;;;;4996413;28;20490;-57
2023/06/01 12:22:12;;;;;;;7.20;3.90;;;30.60;19.70;;;;;;4996401;28;20501;-55
2023/06/01 12:24:38;;;;;;;6.60;4.53;;;30.80;18.90;;;;;;4996310;28;20415;-54
2023/06/01 12:27:22;;;;;;;5.20;3.80;;;30.90;19.40;;;;;;4996074;28;20433;-57
2023/06/01 12:29:50;;;;;;;10.23;4.20;;;31.00;19.30;;;;;;4995995;28;20526;-56
2023/06/01 12:32:18;;;;;;;8.60;4.30;;;31.00;18.30;;;;;;4996115;28;20408;-54
2023/06/01 12:34:47;;;;;;;7.27;4.80;;;31.00;19.70;;;;;;4996010;28;20971;-56
2023/06/01 12:37:20;;;;;;;7.60;4.87;;;31.00;18.90;;;;;;4995888;28;21118;-57
2023/06/01 12:39:53;;;;;;;4.63;4.00;;;31.00;19.50;;;;;;4995485;28;20987;-54
2023/06/01 12:42:20;;;;;;;6.00;4.20;;;31.00;17.80;;;;;;4995749;28;20761;-57
2023/06/01 12:44:53;;;;;;;6.20;4.00;;;30.90;18.00;;;;;;4978381;28;20406;-54
2023/06/01 12:47:18;;;;;;;6.47;4.43;;;30.90;18.40;;;;;;4995869;28;20464;-55
2023/06/01 12:50:04;;;;;;;6.30;4.80;;;30.80;19.40;;;;;;4995668;28;20924;-57
2023/06/01 12:52:30;;;;;;;4.37;3.97;;;31.00;19.70;;;;;;4995628;28;20186;-58